sensor_id;sensor_type;location;lat;lon;timestamp;temperature;humidity
7174;DHT22;3628;48.654;8.932;2023-04-19T00:00:36;9.70;99.90
7174;DHT22;3628;48.654;8.932;2023-04-19T00:03:02;9.70;99.90
7174;DHT22;3628;48.654;8.932;2023-04-19T00:05:28;9.70;99.90
7174;DHT22;3628;48.654;8.932;2023-04-19T00:07:54;9.70;99.90
7174;DHT22;3628;48.654;8.932;2023-04-19T00:10:20;9.60;99.90
7174;DHT22;3628;48.654;8.932;2023-04-19T00:12:45;9.70;99.90
7174;DHT22;3628;48.654;8.932;2023-04-19T00:15:11;9.60;99.90
7174;DHT22;3628;48.654;8.932;2023-04-19T00:17:37;9.70;99.90
7174;DHT22;3628;48.654;8.932;2023-04-19T00:20:03;9.70;99.90
7174;DHT22;3628;48.654;8.932;2023-04-19T00:22:33;9.70;99.90
7174;DHT22;3628;48.654;8.932;2023-04-19T00:24:58;9.60;99.90
7174;DHT22;3628;48.654;8.932;2023-04-19T00:27:24;9.70;99.90
7174;DHT22;3628;48.654;8.932;2023-04-19T00:29:49;9.60;99.90
7174;DHT22;3628;48.654;8.932;2023-04-19T00:32:16;9.60;99.90
7174;DHT22;3628;48.654;8.932;2023-04-19T00:34:41;9.60;99.90
7174;DHT22;3628;48.654;8.932;2023-04-19T00:37:09;9.60;99.90
7174;DHT22;3628;48.654;8.932;2023-04-19T00:39:35;9.60;99.90
7174;DHT22;3628;48.654;8.932;2023-04-19T00:42:01;9.50;99.90
7174;DHT22;3628;48.654;8.932;2023-04-19T00:44:27;9.50;99.90
7174;DHT22;3628;48.654;8.932;2023-04-19T00:46:53;9.60;99.90
7174;DHT22;3628;48.654;8.932;2023-04-19T00:49:19;9.50;99.90
7174;DHT22;3628;48.654;8.932;2023-04-19T00:51:47;9.50;99.90
7174;DHT22;3628;48.654;8.932;2023-04-19T00:54:14;9.40;99.90
7174;DHT22;3628;48.654;8.932;2023-04-19T00:56:39;9.40;99.90
7174;DHT22;3628;48.654;8.932;2023-04-19T00:59:05;9.40;99.90
7174;DHT22;3628;48.654;8.932;2023-04-19T01:01:32;9.40;99.90
7174;DHT22;3628;48.654;8.932;2023-04-19T01:03:59;9.40;99.90
7174;DHT22;3628;48.654;8.932;2023-04-19T01:06:29;9.50;99.90
7174;DHT22;3628;48.654;8.932;2023-04-19T01:08:55;9.40;99.90
7174;DHT22;3628;48.654;8.932;2023-04-19T01:11:22;9.40;99.90
7174;DHT22;3628;48.654;8.932;2023-04-19T01:13:48;9.40;99.90
7174;DHT22;3628;48.654;8.932;2023-04-19T01:16:14;9.40;99.90
7174;DHT22;3628;48.654;8.932;2023-04-19T01:18:39;9.40;99.90
7174;DHT22;3628;48.654;8.932;2023-04-19T01:21:06;9.30;99.90
7174;DHT22;3628;48.654;8.932;2023-04-19T01:23:33;9.30;99.90
7174;DHT22;3628;48.654;8.932;2023-04-19T01:26:00;9.30;99.90
7174;DHT22;3628;48.654;8.932;2023-04-19T01:28:26;9.30;99.90
7174;DHT22;3628;48.654;8.932;2023-04-19T01:30:51;9.30;99.90
7174;DHT22;3628;48.654;8.932;2023-04-19T01:33:18;9.20;99.90
7174;DHT22;3628;48.654;8.932;2023-04-19T01:35:44;9.30;99.90
7174;DHT22;3628;48.654;8.932;2023-04-19T01:38:11;9.20;99.90
7174;DHT22;3628;48.654;8.932;2023-04-19T01:40:36;9.20;99.90
7174;DHT22;3628;48.654;8.932;2023-04-19T01:43:02;9.20;99.90
7174;DHT22;3628;48.654;8.932;2023-04-19T01:45:27;9.20;99.90
7174;DHT22;3628;48.654;8.932;2023-04-19T01:47:53;9.20;99.90
7174;DHT22;3628;48.654;8.932;2023-04-19T01:50:20;9.20;99.90
7174;DHT22;3628;48.654;8.932;2023-04-19T01:52:45;9.20;99.90
7174;DHT22;3628;48.654;8.932;2023-04-19T01:55:11;9.20;99.90
7174;DHT22;3628;48.654;8.932;2023-04-19T01:57:37;9.20;99.90
7174;DHT22;3628;48.654;8.932;2023-04-19T02:00:02;9.20;99.90
7174;DHT22;3628;48.654;8.932;2023-04-19T02:02:28;9.20;99.90
7174;DHT22;3628;48.654;8.932;2023-04-19T02:04:53;9.20;99.90
7174;DHT22;3628;48.654;8.932;2023-04-19T02:07:19;9.20;99.90
7174;DHT22;3628;48.654;8.932;2023-04-19T02:09:45;9.20;99.90
7174;DHT22;3628;48.654;8.932;2023-04-19T02:12:10;9.20;99.90
7174;DHT22;3628;48.654;8.932;2023-04-19T02:14:36;9.20;99.90
7174;DHT22;3628;48.654;8.932;2023-04-19T02:17:01;9.20;99.90
7174;DHT22;3628;48.654;8.932;2023-04-19T02:19:27;9.10;99.90
7174;DHT22;3628;48.654;8.932;2023-04-19T02:21:52;9.10;99.90
7174;DHT22;3628;48.654;8.932;2023-04-19T02:24:22;9.10;99.90
7174;DHT22;3628;48.654;8.932;2023-04-19T02:26:48;9.10;99.90
7174;DHT22;3628;48.654;8.932;2023-04-19T02:29:14;9.10;99.90
7174;DHT22;3628;48.654;8.932;2023-04-19T02:31:41;9.10;99.90
7174;DHT22;3628;48.654;8.932;2023-04-19T02:34:07;9.10;99.90
7174;DHT22;3628;48.654;8.932;2023-04-19T02:36:32;9.00;99.90
7174;DHT22;3628;48.654;8.932;2023-04-19T02:38:58;9.10;99.90
7174;DHT22;3628;48.654;8.932;2023-04-19T02:41:23;9.10;99.90
7174;DHT22;3628;48.654;8.932;2023-04-19T02:43:49;9.00;99.90
7174;DHT22;3628;48.654;8.932;2023-04-19T02:46:16;9.00;99.90
7174;DHT22;3628;48.654;8.932;2023-04-19T02:48:41;9.00;99.90
7174;DHT22;3628;48.654;8.932;2023-04-19T02:51:07;9.10;99.90
7174;DHT22;3628;48.654;8.932;2023-04-19T02:53:33;9.10;99.90
7174;DHT22;3628;48.654;8.932;2023-04-19T02:55:58;9.10;99.90
7174;DHT22;3628;48.654;8.932;2023-04-19T02:58:25;9.10;99.90
7174;DHT22;3628;48.654;8.932;2023-04-19T03:00:51;9.10;99.90
7174;DHT22;3628;48.654;8.932;2023-04-19T03:03:16;9.00;99.90
7174;DHT22;3628;48.654;8.932;2023-04-19T03:05:42;9.00;99.90
7174;DHT22;3628;48.654;8.932;2023-04-19T03:08:07;9.00;99.90
7174;DHT22;3628;48.654;8.932;2023-04-19T03:10:35;9.00;99.90
7174;DHT22;3628;48.654;8.932;2023-04-19T03:13:00;8.90;99.90
7174;DHT22;3628;48.654;8.932;2023-04-19T03:15:26;8.90;99.90
7174;DHT22;3628;48.654;8.932;2023-04-19T03:17:51;8.90;99.90
7174;DHT22;3628;48.654;8.932;2023-04-19T03:20:17;8.90;99.90
7174;DHT22;3628;48.654;8.932;2023-04-19T03:22:43;8.90;99.90
7174;DHT22;3628;48.654;8.932;2023-04-19T03:25:09;8.90;99.90
7174;DHT22;3628;48.654;8.932;2023-04-19T03:27:36;8.80;99.90
7174;DHT22;3628;48.654;8.932;2023-04-19T03:30:02;8.80;99.90
7174;DHT22;3628;48.654;8.932;2023-04-19T03:32:28;8.70;99.90
7174;DHT22;3628;48.654;8.932;2023-04-19T03:34:54;8.70;99.90
7174;DHT22;3628;48.654;8.932;2023-04-19T03:37:19;8.70;99.90
7174;DHT22;3628;48.654;8.932;2023-04-19T03:39:45;8.70;99.90
7174;DHT22;3628;48.654;8.932;2023-04-19T03:42:10;8.70;99.90
7174;DHT22;3628;48.654;8.932;2023-04-19T03:44:36;8.70;99.90
7174;DHT22;3628;48.654;8.932;2023-04-19T03:47:01;8.70;99.90
7174;DHT22;3628;48.654;8.932;2023-04-19T03:49:27;8.80;99.90
7174;DHT22;3628;48.654;8.932;2023-04-19T03:51:52;8.70;99.90
7174;DHT22;3628;48.654;8.932;2023-04-19T03:54:18;8.70;99.90
7174;DHT22;3628;48.654;8.932;2023-04-19T03:56:43;8.70;99.90
7174;DHT22;3628;48.654;8.932;2023-04-19T03:59:09;8.70;99.90
7174;DHT22;3628;48.654;8.932;2023-04-19T04:01:35;8.70;99.90
7174;DHT22;3628;48.654;8.932;2023-04-19T04:04:07;8.70;99.90
7174;DHT22;3628;48.654;8.932;2023-04-19T04:06:33;8.70;99.90
7174;DHT22;3628;48.654;8.932;2023-04-19T04:08:59;8.70;99.90
7174;DHT22;3628;48.654;8.932;2023-04-19T04:11:24;8.70;99.90
7174;DHT22;3628;48.654;8.932;2023-04-19T04:13:50;8.70;99.90
7174;DHT22;3628;48.654;8.932;2023-04-19T04:16:15;8.70;99.90
7174;DHT22;3628;48.654;8.932;2023-04-19T04:18:41;8.70;99.90
7174;DHT22;3628;48.654;8.932;2023-04-19T04:21:07;8.70;99.90
7174;DHT22;3628;48.654;8.932;2023-04-19T04:23:32;8.60;99.90
7174;DHT22;3628;48.654;8.932;2023-04-19T04:25:59;8.60;99.90
7174;DHT22;3628;48.654;8.932;2023-04-19T04:28:29;8.60;99.90
7174;DHT22;3628;48.654;8.932;2023-04-19T04:30:55;8.50;99.90
7174;DHT22;3628;48.654;8.932;2023-04-19T04:33:25;8.60;99.90
7174;DHT22;3628;48.654;8.932;2023-04-19T04:35:51;8.60;99.90
7174;DHT22;3628;48.654;8.932;2023-04-19T04:38:20;8.60;99.90
7174;DHT22;3628;48.654;8.932;2023-04-19T04:40:52;8.60;99.90
7174;DHT22;3628;48.654;8.932;2023-04-19T04:43:19;8.50;99.90
7174;DHT22;3628;48.654;8.932;2023-04-19T04:45:46;8.50;99.90
7174;DHT22;3628;48.654;8.932;2023-04-19T04:48:11;8.50;99.90
7174;DHT22;3628;48.654;8.932;2023-04-19T04:50:37;8.50;99.90
7174;DHT22;3628;48.654;8.932;2023-04-19T04:53:03;8.50;99.90
7174;DHT22;3628;48.654;8.932;2023-04-19T04:55:29;8.40;99.90
7174;DHT22;3628;48.654;8.932;2023-04-19T04:57:54;8.40;99.90
7174;DHT22;3628;48.654;8.932;2023-04-19T05:00:21;8.40;99.90
7174;DHT22;3628;48.654;8.932;2023-04-19T05:02:46;8.40;99.90
7174;DHT22;3628;48.654;8.932;2023-04-19T05:05:12;8.40;99.90
7174;DHT22;3628;48.654;8.932;2023-04-19T05:07:38;8.40;99.90
7174;DHT22;3628;48.654;8.932;2023-04-19T05:10:03;8.30;99.90
7174;DHT22;3628;48.654;8.932;2023-04-19T05:12:29;8.30;99.90
7174;DHT22;3628;48.654;8.932;2023-04-19T05:14:55;8.30;99.90
7174;DHT22;3628;48.654;8.932;2023-04-19T05:17:20;8.30;99.90
7174;DHT22;3628;48.654;8.932;2023-04-19T05:19:46;8.20;99.90
7174;DHT22;3628;48.654;8.932;2023-04-19T05:22:11;8.20;99.90
7174;DHT22;3628;48.654;8.932;2023-04-19T05:24:37;8.20;99.90
7174;DHT22;3628;48.654;8.932;2023-04-19T05:27:02;8.20;99.90
7174;DHT22;3628;48.654;8.932;2023-04-19T05:29:28;8.20;99.90
7174;DHT22;3628;48.654;8.932;2023-04-19T05:31:54;8.10;99.90
7174;DHT22;3628;48.654;8.932;2023-04-19T05:34:19;8.10;99.90
7174;DHT22;3628;48.654;8.932;2023-04-19T05:36:45;8.20;99.90
7174;DHT22;3628;48.654;8.932;2023-04-19T05:39:11;8.10;99.90
7174;DHT22;3628;48.654;8.932;2023-04-19T05:41:36;8.10;99.90
7174;DHT22;3628;48.654;8.932;2023-04-19T05:44:02;8.20;99.90
7174;DHT22;3628;48.654;8.932;2023-04-19T05:46:27;8.20;99.90
7174;DHT22;3628;48.654;8.932;2023-04-19T05:48:53;8.20;99.90
7174;DHT22;3628;48.654;8.932;2023-04-19T05:51:18;8.30;99.90
7174;DHT22;3628;48.654;8.932;2023-04-19T05:53:44;8.30;99.90
7174;DHT22;3628;48.654;8.932;2023-04-19T05:56:10;8.40;99.90
7174;DHT22;3628;48.654;8.932;2023-04-19T05:58:36;8.30;99.90
7174;DHT22;3628;48.654;8.932;2023-04-19T06:01:02;8.40;99.90
7174;DHT22;3628;48.654;8.932;2023-04-19T06:03:28;8.50;99.90
7174;DHT22;3628;48.654;8.932;2023-04-19T06:05:54;8.40;99.90
7174;DHT22;3628;48.654;8.932;2023-04-19T06:08:20;8.50;99.90
7174;DHT22;3628;48.654;8.932;2023-04-19T06:10:45;8.50;99.90
7174;DHT22;3628;48.654;8.932;2023-04-19T06:13:13;8.50;99.90
7174;DHT22;3628;48.654;8.932;2023-04-19T06:15:39;8.50;99.90
7174;DHT22;3628;48.654;8.932;2023-04-19T06:18:05;8.60;99.90
7174;DHT22;3628;48.654;8.932;2023-04-19T06:20:38;8.50;99.90
7174;DHT22;3628;48.654;8.932;2023-04-19T06:23:04;8.60;99.90
7174;DHT22;3628;48.654;8.932;2023-04-19T06:25:30;8.60;99.90
7174;DHT22;3628;48.654;8.932;2023-04-19T06:27:56;8.70;99.90
7174;DHT22;3628;48.654;8.932;2023-04-19T06:30:22;8.70;99.90
7174;DHT22;3628;48.654;8.932;2023-04-19T06:32:47;8.80;99.90
7174;DHT22;3628;48.654;8.932;2023-04-19T06:35:13;8.90;99.90
7174;DHT22;3628;48.654;8.932;2023-04-19T06:37:39;8.90;99.90
7174;DHT22;3628;48.654;8.932;2023-04-19T06:40:05;9.00;99.90
7174;DHT22;3628;48.654;8.932;2023-04-19T06:42:35;9.00;99.90
7174;DHT22;3628;48.654;8.932;2023-04-19T06:45:01;9.00;99.90
7174;DHT22;3628;48.654;8.932;2023-04-19T06:47:28;9.10;99.90
7174;DHT22;3628;48.654;8.932;2023-04-19T06:49:54;9.10;99.90
7174;DHT22;3628;48.654;8.932;2023-04-19T06:52:20;9.00;99.90
7174;DHT22;3628;48.654;8.932;2023-04-19T06:54:47;9.00;99.90
7174;DHT22;3628;48.654;8.932;2023-04-19T06:57:13;9.00;99.90
7174;DHT22;3628;48.654;8.932;2023-04-19T06:59:39;9.10;99.90
7174;DHT22;3628;48.654;8.932;2023-04-19T07:02:05;9.10;99.90
7174;DHT22;3628;48.654;8.932;2023-04-19T07:04:31;9.20;99.90
7174;DHT22;3628;48.654;8.932;2023-04-19T07:06:57;9.20;99.90
7174;DHT22;3628;48.654;8.932;2023-04-19T07:09:22;9.20;99.90
7174;DHT22;3628;48.654;8.932;2023-04-19T07:11:48;9.20;99.90
7174;DHT22;3628;48.654;8.932;2023-04-19T07:14:15;9.20;99.90
7174;DHT22;3628;48.654;8.932;2023-04-19T07:16:43;9.30;99.90
7174;DHT22;3628;48.654;8.932;2023-04-19T07:19:09;9.30;99.90
7174;DHT22;3628;48.654;8.932;2023-04-19T07:21:35;9.30;99.90
7174;DHT22;3628;48.654;8.932;2023-04-19T07:24:02;9.30;99.90
7174;DHT22;3628;48.654;8.932;2023-04-19T07:26:28;9.40;99.90
7174;DHT22;3628;48.654;8.932;2023-04-19T07:28:54;9.40;99.90
7174;DHT22;3628;48.654;8.932;2023-04-19T07:31:20;9.50;99.90
7174;DHT22;3628;48.654;8.932;2023-04-19T07:33:45;9.60;99.90
7174;DHT22;3628;48.654;8.932;2023-04-19T07:36:11;9.60;99.90
7174;DHT22;3628;48.654;8.932;2023-04-19T07:38:38;9.70;99.90
7174;DHT22;3628;48.654;8.932;2023-04-19T07:41:04;9.80;99.90
7174;DHT22;3628;48.654;8.932;2023-04-19T07:43:30;9.80;99.90
7174;DHT22;3628;48.654;8.932;2023-04-19T07:45:55;9.80;99.90
7174;DHT22;3628;48.654;8.932;2023-04-19T07:48:21;9.90;99.90
7174;DHT22;3628;48.654;8.932;2023-04-19T07:50:47;10.10;99.90
7174;DHT22;3628;48.654;8.932;2023-04-19T07:53:13;10.30;99.90
7174;DHT22;3628;48.654;8.932;2023-04-19T07:55:38;10.30;99.90
7174;DHT22;3628;48.654;8.932;2023-04-19T07:58:04;10.30;99.90
7174;DHT22;3628;48.654;8.932;2023-04-19T08:00:30;10.20;99.90
7174;DHT22;3628;48.654;8.932;2023-04-19T08:02:56;10.40;99.90
7174;DHT22;3628;48.654;8.932;2023-04-19T08:05:22;10.50;99.90
7174;DHT22;3628;48.654;8.932;2023-04-19T08:07:48;10.50;99.90
7174;DHT22;3628;48.654;8.932;2023-04-19T08:10:17;10.60;99.90
7174;DHT22;3628;48.654;8.932;2023-04-19T08:12:42;10.90;99.90
7174;DHT22;3628;48.654;8.932;2023-04-19T08:15:08;11.10;99.90
7174;DHT22;3628;48.654;8.932;2023-04-19T08:17:34;11.30;99.90
7174;DHT22;3628;48.654;8.932;2023-04-19T08:20:00;11.40;99.90
7174;DHT22;3628;48.654;8.932;2023-04-19T08:22:25;11.30;99.90
7174;DHT22;3628;48.654;8.932;2023-04-19T08:24:51;11.20;99.90
7174;DHT22;3628;48.654;8.932;2023-04-19T08:27:17;11.10;99.90
7174;DHT22;3628;48.654;8.932;2023-04-19T08:29:43;11.40;99.90
7174;DHT22;3628;48.654;8.932;2023-04-19T08:32:11;11.70;99.90
7174;DHT22;3628;48.654;8.932;2023-04-19T08:34:37;11.90;99.90
7174;DHT22;3628;48.654;8.932;2023-04-19T08:37:04;11.90;99.90
7174;DHT22;3628;48.654;8.932;2023-04-19T08:39:30;11.90;99.90
7174;DHT22;3628;48.654;8.932;2023-04-19T08:42:05;11.90;99.90
7174;DHT22;3628;48.654;8.932;2023-04-19T08:44:32;11.90;99.90
7174;DHT22;3628;48.654;8.932;2023-04-19T08:46:58;11.90;99.90
7174;DHT22;3628;48.654;8.932;2023-04-19T08:49:27;11.80;99.90
7174;DHT22;3628;48.654;8.932;2023-04-19T08:51:54;11.90;99.90
7174;DHT22;3628;48.654;8.932;2023-04-19T08:54:20;11.70;99.90
7174;DHT22;3628;48.654;8.932;2023-04-19T08:56:46;11.60;99.90
7174;DHT22;3628;48.654;8.932;2023-04-19T08:59:12;11.50;99.90
7174;DHT22;3628;48.654;8.932;2023-04-19T09:01:38;11.40;99.90
7174;DHT22;3628;48.654;8.932;2023-04-19T09:04:04;11.30;99.90
7174;DHT22;3628;48.654;8.932;2023-04-19T09:06:37;11.30;99.90
7174;DHT22;3628;48.654;8.932;2023-04-19T09:09:17;11.30;99.90
7174;DHT22;3628;48.654;8.932;2023-04-19T09:11:44;11.20;99.90
7174;DHT22;3628;48.654;8.932;2023-04-19T09:14:11;11.20;99.90
7174;DHT22;3628;48.654;8.932;2023-04-19T09:16:36;11.20;99.90
7174;DHT22;3628;48.654;8.932;2023-04-19T09:19:04;11.30;99.90
7174;DHT22;3628;48.654;8.932;2023-04-19T09:21:31;11.40;99.90
7174;DHT22;3628;48.654;8.932;2023-04-19T09:23:57;11.50;99.90
7174;DHT22;3628;48.654;8.932;2023-04-19T09:26:24;11.70;99.90
7174;DHT22;3628;48.654;8.932;2023-04-19T09:29:04;11.80;99.90
7174;DHT22;3628;48.654;8.932;2023-04-19T09:31:31;11.90;99.90
7174;DHT22;3628;48.654;8.932;2023-04-19T09:33:57;11.90;99.90
7174;DHT22;3628;48.654;8.932;2023-04-19T09:36:36;11.90;99.90
7174;DHT22;3628;48.654;8.932;2023-04-19T09:39:01;11.90;99.90
7174;DHT22;3628;48.654;8.932;2023-04-19T09:41:27;12.10;99.90
7174;DHT22;3628;48.654;8.932;2023-04-19T09:43:53;12.10;99.90
7174;DHT22;3628;48.654;8.932;2023-04-19T09:46:32;12.20;99.90
7174;DHT22;3628;48.654;8.932;2023-04-19T09:51:49;12.70;99.90
7174;DHT22;3628;48.654;8.932;2023-04-19T09:54:16;12.90;99.90
7174;DHT22;3628;48.654;8.932;2023-04-19T09:56:42;13.00;99.90
7174;DHT22;3628;48.654;8.932;2023-04-19T09:59:09;13.20;99.90
7174;DHT22;3628;48.654;8.932;2023-04-19T10:01:38;13.10;99.90
7174;DHT22;3628;48.654;8.932;2023-04-19T10:04:05;13.10;99.90
7174;DHT22;3628;48.654;8.932;2023-04-19T10:06:31;13.00;99.90
7174;DHT22;3628;48.654;8.932;2023-04-19T10:09:00;13.00;99.90
7174;DHT22;3628;48.654;8.932;2023-04-19T10:11:34;13.10;99.90
7174;DHT22;3628;48.654;8.932;2023-04-19T10:14:07;13.30;99.90
7174;DHT22;3628;48.654;8.932;2023-04-19T10:16:34;13.40;99.90
7174;DHT22;3628;48.654;8.932;2023-04-19T10:19:02;13.60;99.90
7174;DHT22;3628;48.654;8.932;2023-04-19T10:21:29;13.70;99.90
7174;DHT22;3628;48.654;8.932;2023-04-19T10:23:56;13.50;99.90
7174;DHT22;3628;48.654;8.932;2023-04-19T10:26:22;13.60;99.90
7174;DHT22;3628;48.654;8.932;2023-04-19T10:28:48;13.60;99.90
7174;DHT22;3628;48.654;8.932;2023-04-19T10:31:15;13.50;99.90
7174;DHT22;3628;48.654;8.932;2023-04-19T10:33:46;13.30;99.90
7174;DHT22;3628;48.654;8.932;2023-04-19T10:36:13;13.40;99.90
7174;DHT22;3628;48.654;8.932;2023-04-19T10:41:07;13.50;99.90
7174;DHT22;3628;48.654;8.932;2023-04-19T10:43:37;13.40;99.90
7174;DHT22;3628;48.654;8.932;2023-04-19T10:49:01;13.50;99.90
7174;DHT22;3628;48.654;8.932;2023-04-19T10:51:35;13.40;99.90
7174;DHT22;3628;48.654;8.932;2023-04-19T10:54:08;13.20;99.90
7174;DHT22;3628;48.654;8.932;2023-04-19T11:04:22;13.20;99.90
7174;DHT22;3628;48.654;8.932;2023-04-19T11:09:39;12.80;99.90
7174;DHT22;3628;48.654;8.932;2023-04-19T11:12:11;12.70;99.90
7174;DHT22;3628;48.654;8.932;2023-04-19T11:17:21;12.50;99.90
7174;DHT22;3628;48.654;8.932;2023-04-19T11:19:57;12.50;99.90
7174;DHT22;3628;48.654;8.932;2023-04-19T11:24:55;12.70;99.90
7174;DHT22;3628;48.654;8.932;2023-04-19T11:27:21;12.80;99.90
7174;DHT22;3628;48.654;8.932;2023-04-19T11:29:47;12.90;99.90
7174;DHT22;3628;48.654;8.932;2023-04-19T11:32:12;13.10;99.90
7174;DHT22;3628;48.654;8.932;2023-04-19T11:34:39;13.10;99.90
7174;DHT22;3628;48.654;8.932;2023-04-19T11:37:05;13.10;99.90
7174;DHT22;3628;48.654;8.932;2023-04-19T11:39:30;13.20;99.90
7174;DHT22;3628;48.654;8.932;2023-04-19T11:41:56;13.30;99.90
7174;DHT22;3628;48.654;8.932;2023-04-19T11:44:22;13.40;99.90
7174;DHT22;3628;48.654;8.932;2023-04-19T11:46:59;13.20;99.90
7174;DHT22;3628;48.654;8.932;2023-04-19T11:49:31;12.90;99.90
7174;DHT22;3628;48.654;8.932;2023-04-19T11:52:00;12.70;99.90
7174;DHT22;3628;48.654;8.932;2023-04-19T11:54:26;12.60;99.90
7174;DHT22;3628;48.654;8.932;2023-04-19T11:57:02;12.40;99.90
7174;DHT22;3628;48.654;8.932;2023-04-19T11:59:34;12.30;99.90
7174;DHT22;3628;48.654;8.932;2023-04-19T12:02:18;12.10;99.90
7174;DHT22;3628;48.654;8.932;2023-04-19T12:04:45;11.90;99.90
7174;DHT22;3628;48.654;8.932;2023-04-19T12:07:10;11.90;99.90
7174;DHT22;3628;48.654;8.932;2023-04-19T12:09:36;11.80;99.90
7174;DHT22;3628;48.654;8.932;2023-04-19T12:12:03;11.80;99.90
7174;DHT22;3628;48.654;8.932;2023-04-19T12:14:28;11.90;99.90
7174;DHT22;3628;48.654;8.932;2023-04-19T12:17:11;12.00;99.90
7174;DHT22;3628;48.654;8.932;2023-04-19T12:19:43;11.90;99.90
7174;DHT22;3628;48.654;8.932;2023-04-19T12:22:19;11.70;99.90
7174;DHT22;3628;48.654;8.932;2023-04-19T12:24:45;11.60;99.90
7174;DHT22;3628;48.654;8.932;2023-04-19T12:27:10;11.30;99.90
7174;DHT22;3628;48.654;8.932;2023-04-19T12:29:37;11.10;99.90
7174;DHT22;3628;48.654;8.932;2023-04-19T12:32:03;11.00;99.90
7174;DHT22;3628;48.654;8.932;2023-04-19T12:34:29;10.80;99.90
7174;DHT22;3628;48.654;8.932;2023-04-19T12:36:55;10.80;99.90
7174;DHT22;3628;48.654;8.932;2023-04-19T12:39:21;10.70;99.90
7174;DHT22;3628;48.654;8.932;2023-04-19T12:41:46;10.60;99.90
7174;DHT22;3628;48.654;8.932;2023-04-19T12:44:13;10.50;99.90
7174;DHT22;3628;48.654;8.932;2023-04-19T12:46:39;10.50;99.90
7174;DHT22;3628;48.654;8.932;2023-04-19T12:49:04;10.40;99.90
7174;DHT22;3628;48.654;8.932;2023-04-19T12:51:30;10.40;99.90
7174;DHT22;3628;48.654;8.932;2023-04-19T12:53:56;10.40;99.90
7174;DHT22;3628;48.654;8.932;2023-04-19T12:56:21;10.30;99.90
7174;DHT22;3628;48.654;8.932;2023-04-19T12:58:47;10.30;99.90
7174;DHT22;3628;48.654;8.932;2023-04-19T13:01:12;10.40;99.90
7174;DHT22;3628;48.654;8.932;2023-04-19T13:03:38;10.40;99.90
7174;DHT22;3628;48.654;8.932;2023-04-19T13:06:04;10.40;99.90
7174;DHT22;3628;48.654;8.932;2023-04-19T13:08:30;10.40;99.90
7174;DHT22;3628;48.654;8.932;2023-04-19T13:10:56;10.50;99.90
7174;DHT22;3628;48.654;8.932;2023-04-19T13:13:24;10.60;99.90
7174;DHT22;3628;48.654;8.932;2023-04-19T13:15:50;10.50;99.90
7174;DHT22;3628;48.654;8.932;2023-04-19T13:18:16;10.20;99.90
7174;DHT22;3628;48.654;8.932;2023-04-19T13:20:41;10.10;99.90
7174;DHT22;3628;48.654;8.932;2023-04-19T13:23:07;10.00;99.90
7174;DHT22;3628;48.654;8.932;2023-04-19T13:25:33;9.80;99.90
7174;DHT22;3628;48.654;8.932;2023-04-19T13:27:58;9.70;99.90
7174;DHT22;3628;48.654;8.932;2023-04-19T13:30:25;9.60;99.90
7174;DHT22;3628;48.654;8.932;2023-04-19T13:32:51;9.50;99.90
7174;DHT22;3628;48.654;8.932;2023-04-19T13:35:17;9.30;99.90
7174;DHT22;3628;48.654;8.932;2023-04-19T13:37:42;9.20;99.90
7174;DHT22;3628;48.654;8.932;2023-04-19T13:40:09;9.00;99.90
7174;DHT22;3628;48.654;8.932;2023-04-19T13:42:35;8.90;99.90
7174;DHT22;3628;48.654;8.932;2023-04-19T13:45:01;8.90;99.90
7174;DHT22;3628;48.654;8.932;2023-04-19T13:47:27;8.90;99.90
7174;DHT22;3628;48.654;8.932;2023-04-19T13:49:53;8.90;99.90
7174;DHT22;3628;48.654;8.932;2023-04-19T13:52:18;9.00;99.90
7174;DHT22;3628;48.654;8.932;2023-04-19T13:54:44;8.90;99.90
7174;DHT22;3628;48.654;8.932;2023-04-19T13:57:10;8.90;99.90
7174;DHT22;3628;48.654;8.932;2023-04-19T13:59:36;8.90;99.90
7174;DHT22;3628;48.654;8.932;2023-04-19T14:02:02;8.90;99.90
7174;DHT22;3628;48.654;8.932;2023-04-19T14:04:28;8.80;99.90
7174;DHT22;3628;48.654;8.932;2023-04-19T14:06:54;8.80;99.90
7174;DHT22;3628;48.654;8.932;2023-04-19T14:09:20;8.80;99.90
7174;DHT22;3628;48.654;8.932;2023-04-19T14:11:46;8.80;99.90
7174;DHT22;3628;48.654;8.932;2023-04-19T14:14:13;8.90;99.90
7174;DHT22;3628;48.654;8.932;2023-04-19T14:16:38;8.90;99.90
7174;DHT22;3628;48.654;8.932;2023-04-19T14:19:04;8.90;99.90
7174;DHT22;3628;48.654;8.932;2023-04-19T14:21:30;8.90;99.90
7174;DHT22;3628;48.654;8.932;2023-04-19T14:23:55;8.90;99.90
7174;DHT22;3628;48.654;8.932;2023-04-19T14:26:21;9.00;99.90
7174;DHT22;3628;48.654;8.932;2023-04-19T14:28:47;9.00;99.90
7174;DHT22;3628;48.654;8.932;2023-04-19T14:31:12;9.00;99.90
7174;DHT22;3628;48.654;8.932;2023-04-19T14:33:38;9.10;99.90
7174;DHT22;3628;48.654;8.932;2023-04-19T14:36:03;9.20;99.90
7174;DHT22;3628;48.654;8.932;2023-04-19T14:38:29;9.20;99.90
7174;DHT22;3628;48.654;8.932;2023-04-19T14:40:55;9.30;99.90
7174;DHT22;3628;48.654;8.932;2023-04-19T14:43:21;9.30;99.90
7174;DHT22;3628;48.654;8.932;2023-04-19T14:45:50;9.40;99.90
7174;DHT22;3628;48.654;8.932;2023-04-19T14:48:16;9.40;99.90
7174;DHT22;3628;48.654;8.932;2023-04-19T14:50:42;9.40;99.90
7174;DHT22;3628;48.654;8.932;2023-04-19T14:53:07;9.40;99.90
7174;DHT22;3628;48.654;8.932;2023-04-19T14:55:33;9.40;99.90
7174;DHT22;3628;48.654;8.932;2023-04-19T14:57:59;9.60;99.90
7174;DHT22;3628;48.654;8.932;2023-04-19T15:00:26;9.70;99.90
7174;DHT22;3628;48.654;8.932;2023-04-19T15:02:51;9.80;99.90
7174;DHT22;3628;48.654;8.932;2023-04-19T15:05:17;9.90;99.90
7174;DHT22;3628;48.654;8.932;2023-04-19T15:07:42;10.00;99.90
7174;DHT22;3628;48.654;8.932;2023-04-19T15:10:08;10.10;99.90
7174;DHT22;3628;48.654;8.932;2023-04-19T15:12:34;10.20;99.90
7174;DHT22;3628;48.654;8.932;2023-04-19T15:15:00;10.30;99.90
7174;DHT22;3628;48.654;8.932;2023-04-19T15:17:26;10.30;99.90
7174;DHT22;3628;48.654;8.932;2023-04-19T15:19:51;10.40;99.90
7174;DHT22;3628;48.654;8.932;2023-04-19T15:22:17;10.50;99.90
7174;DHT22;3628;48.654;8.932;2023-04-19T15:24:42;10.50;99.90
7174;DHT22;3628;48.654;8.932;2023-04-19T15:27:08;10.50;99.90
7174;DHT22;3628;48.654;8.932;2023-04-19T15:29:34;10.30;99.90
7174;DHT22;3628;48.654;8.932;2023-04-19T15:32:00;10.30;99.90
7174;DHT22;3628;48.654;8.932;2023-04-19T15:34:27;10.20;99.90
7174;DHT22;3628;48.654;8.932;2023-04-19T15:36:52;10.30;99.90
7174;DHT22;3628;48.654;8.932;2023-04-19T15:39:18;10.30;99.90
7174;DHT22;3628;48.654;8.932;2023-04-19T15:41:43;10.30;99.90
7174;DHT22;3628;48.654;8.932;2023-04-19T15:44:09;10.30;99.90
7174;DHT22;3628;48.654;8.932;2023-04-19T15:46:34;10.30;99.90
7174;DHT22;3628;48.654;8.932;2023-04-19T15:49:00;10.10;99.90
7174;DHT22;3628;48.654;8.932;2023-04-19T15:51:26;10.20;99.90
7174;DHT22;3628;48.654;8.932;2023-04-19T15:53:51;10.20;99.90
7174;DHT22;3628;48.654;8.932;2023-04-19T15:56:17;10.40;99.90
7174;DHT22;3628;48.654;8.932;2023-04-19T15:58:42;10.40;99.90
7174;DHT22;3628;48.654;8.932;2023-04-19T16:01:10;10.50;99.90
7174;DHT22;3628;48.654;8.932;2023-04-19T16:03:36;10.50;99.90
7174;DHT22;3628;48.654;8.932;2023-04-19T16:06:01;10.50;99.90
7174;DHT22;3628;48.654;8.932;2023-04-19T16:08:27;10.50;99.90
7174;DHT22;3628;48.654;8.932;2023-04-19T16:10:52;10.60;99.90
7174;DHT22;3628;48.654;8.932;2023-04-19T16:13:18;10.60;99.90
7174;DHT22;3628;48.654;8.932;2023-04-19T16:15:45;10.70;99.90
7174;DHT22;3628;48.654;8.932;2023-04-19T16:18:11;10.80;99.90
7174;DHT22;3628;48.654;8.932;2023-04-19T16:20:38;10.80;99.90
7174;DHT22;3628;48.654;8.932;2023-04-19T16:23:04;10.90;99.90
7174;DHT22;3628;48.654;8.932;2023-04-19T16:25:30;10.90;99.90
7174;DHT22;3628;48.654;8.932;2023-04-19T16:27:57;11.10;99.90
7174;DHT22;3628;48.654;8.932;2023-04-19T16:30:23;11.40;99.90